CheckWX is a tool to help pilots better visualize weather data.  It is not intended as a substitute for an official pre-flight weather briefing.

12:03:55 UTC

KBPC METAR
Pampa
Pampa, Texas, USA
Current

9 mins ago

KBPC 251155Z AUTO 00000KT 7SM OVC013 05/05 A3026 RMK AO2
Observed
Mar-25 @ 11:55 UTC
Visibility
7 SM
Flight Rules
MVFR
Cloud Levels
  • Overcast at 1,300' AGL
Temperature
C / 41°F
Dewpoint
C / 41°F
Humidity
100%
Altimeter
30.26" Hg
Pressure
1024.72 hPa
Previous

29 mins ago

KBPC 251135Z AUTO 00000KT 7SM SCT013 05/04 A3025 RMK AO2
Observed
Mar-25 @ 11:35 UTC
Visibility
7 SM
Flight Rules
VFR
Cloud Levels
  • Scattered at 1,300' AGL
Temperature
C / 41°F
Dewpoint
C / 39°F
Humidity
93%
Altimeter
30.25" Hg
Pressure
1024.42 hPa
Previous

49 mins ago

KBPC 251115Z AUTO 03003KT 10SM CLR 05/05 A3025 RMK AO2
Observed
Mar-25 @ 11:15 UTC
Wind
  • 030° at 3 KTS
Visibility
10 SM
Flight Rules
VFR
Cloud Levels
  • Clear skies
Temperature
C / 41°F
Dewpoint
C / 41°F
Humidity
100%
Altimeter
30.25" Hg
Pressure
1024.42 hPa